sensor_id;sensor_type;location;lat;lon;timestamp;pressure;altitude;pressure_sealevel;temperature;humidity
71457;BME280;59263;48.160;11.752;2022-08-04T00:00:24;95787.94;;;20.23;68.39
71457;BME280;59263;48.160;11.752;2022-08-04T00:11:08;95782.47;;;19.65;73.30
71457;BME280;59263;48.160;11.752;2022-08-04T00:13:37;95775.97;;;19.47;74.19
71457;BME280;59263;48.160;11.752;2022-08-04T00:16:08;95785.84;;;19.45;74.83
71457;BME280;59263;48.160;11.752;2022-08-04T00:18:39;95787.25;;;19.41;74.14
71457;BME280;59263;48.160;11.752;2022-08-04T00:21:09;95787.88;;;19.43;73.66
71457;BME280;59263;48.160;11.752;2022-08-04T00:23:37;95788.47;;;19.45;73.78
71457;BME280;59263;48.160;11.752;2022-08-04T00:26:03;95792.50;;;19.41;73.83
71457;BME280;59263;48.160;11.752;2022-08-04T00:28:29;95788.03;;;19.35;74.40
71457;BME280;59263;48.160;11.752;2022-08-04T00:30:54;95788.44;;;19.25;75.33
71457;BME280;59263;48.160;11.752;2022-08-04T00:33:20;95790.03;;;19.20;75.20
71457;BME280;59263;48.160;11.752;2022-08-04T00:35:49;95788.81;;;19.16;75.70
71457;BME280;59263;48.160;11.752;2022-08-04T00:38:16;95789.19;;;19.06;76.73
71457;BME280;59263;48.160;11.752;2022-08-04T00:43:32;95788.72;;;18.89;78.82
71457;BME280;59263;48.160;11.752;2022-08-04T00:49:41;95793.47;;;18.72;80.36
71457;BME280;59263;48.160;11.752;2022-08-04T00:55:19;95793.41;;;18.66;78.66
71457;BME280;59263;48.160;11.752;2022-08-04T01:00:24;95791.41;;;18.68;78.46
71457;BME280;59263;48.160;11.752;2022-08-04T01:05:33;95785.81;;;18.71;78.64
71457;BME280;59263;48.160;11.752;2022-08-04T01:11:18;95787.75;;;18.69;79.26
71457;BME280;59263;48.160;11.752;2022-08-04T01:16:34;95788.56;;;18.62;79.03
71457;BME280;59263;48.160;11.752;2022-08-04T01:24:57;95795.41;;;18.29;82.09
71457;BME280;59263;48.160;11.752;2022-08-04T01:30:07;95788.25;;;18.16;83.35
71457;BME280;59263;48.160;11.752;2022-08-04T01:32:37;95789.06;;;18.17;82.91
71457;BME280;59263;48.160;11.752;2022-08-04T01:40:30;95785.22;;;18.12;83.25
71457;BME280;59263;48.160;11.752;2022-08-04T01:42:57;95783.59;;;18.11;83.46
71457;BME280;59263;48.160;11.752;2022-08-04T01:45:24;95787.59;;;18.07;84.53
71457;BME280;59263;48.160;11.752;2022-08-04T01:47:54;95787.75;;;17.99;84.59
71457;BME280;59263;48.160;11.752;2022-08-04T01:50:20;95788.44;;;17.86;85.10
71457;BME280;59263;48.160;11.752;2022-08-04T01:52:47;95786.16;;;17.77;86.05
71457;BME280;59263;48.160;11.752;2022-08-04T01:55:13;95785.88;;;17.72;86.61
71457;BME280;59263;48.160;11.752;2022-08-04T01:57:44;95787.50;;;17.73;86.23
71457;BME280;59263;48.160;11.752;2022-08-04T02:00:12;95785.25;;;17.70;86.89
71457;BME280;59263;48.160;11.752;2022-08-04T02:02:38;95780.19;;;17.68;87.13
71457;BME280;59263;48.160;11.752;2022-08-04T02:05:04;95783.09;;;17.73;86.33
71457;BME280;59263;48.160;11.752;2022-08-04T02:16:28;95785.50;;;17.75;87.01
71457;BME280;59263;48.160;11.752;2022-08-04T02:19:06;95781.63;;;17.71;87.58
71457;BME280;59263;48.160;11.752;2022-08-04T02:21:36;95779.03;;;17.71;86.47
71457;BME280;59263;48.160;11.752;2022-08-04T02:24:07;95780.63;;;17.72;85.99
71457;BME280;59263;48.160;11.752;2022-08-04T02:26:33;95791.09;;;17.72;85.79
71457;BME280;59263;48.160;11.752;2022-08-04T02:34:27;95784.13;;;17.57;87.99
71457;BME280;59263;48.160;11.752;2022-08-04T02:36:53;95783.28;;;17.50;88.92
71457;BME280;59263;48.160;11.752;2022-08-04T02:39:21;95777.53;;;17.40;89.52
71457;BME280;59263;48.160;11.752;2022-08-04T02:41:51;95785.88;;;17.29;90.21
71457;BME280;59263;48.160;11.752;2022-08-04T02:44:22;95784.19;;;17.21;90.64
71457;BME280;59263;48.160;11.752;2022-08-04T02:46:50;95786.00;;;17.21;91.05
71457;BME280;59263;48.160;11.752;2022-08-04T02:49:17;95776.78;;;17.25;91.12
71457;BME280;59263;48.160;11.752;2022-08-04T02:51:49;95775.84;;;17.32;89.68
71457;BME280;59263;48.160;11.752;2022-08-04T02:54:17;95780.59;;;17.44;88.76
71457;BME280;59263;48.160;11.752;2022-08-04T02:56:44;95781.28;;;17.52;88.97
71457;BME280;59263;48.160;11.752;2022-08-04T02:59:13;95778.09;;;17.57;87.67
71457;BME280;59263;48.160;11.752;2022-08-04T03:01:40;95774.53;;;17.64;86.50
71457;BME280;59263;48.160;11.752;2022-08-04T03:07:24;95774.31;;;17.81;84.74
71457;BME280;59263;48.160;11.752;2022-08-04T03:10:14;95773.53;;;17.87;83.90
71457;BME280;59263;48.160;11.752;2022-08-04T03:16:00;95767.75;;;17.92;82.88
71457;BME280;59263;48.160;11.752;2022-08-04T03:19:09;95766.75;;;17.93;82.86
71457;BME280;59263;48.160;11.752;2022-08-04T03:27:11;95771.94;;;17.86;82.71
71457;BME280;59263;48.160;11.752;2022-08-04T04:06:46;95775.06;;;17.32;86.26
71457;BME280;59263;48.160;11.752;2022-08-04T04:23:08;95792.84;;;17.22;87.25
71457;BME280;59263;48.160;11.752;2022-08-04T04:45:03;95801.94;;;17.69;83.71
71457;BME280;59263;48.160;11.752;2022-08-04T04:47:40;95797.97;;;17.73;83.30
71457;BME280;59263;48.160;11.752;2022-08-04T04:53:03;95802.69;;;18.05;81.15
71457;BME280;59263;48.160;11.752;2022-08-04T04:55:36;95803.53;;;18.12;80.93
71457;BME280;59263;48.160;11.752;2022-08-04T04:58:03;95796.75;;;18.18;79.92
71457;BME280;59263;48.160;11.752;2022-08-04T05:06:36;95805.69;;;18.58;78.46
71457;BME280;59263;48.160;11.752;2022-08-04T05:11:58;95813.53;;;18.58;80.97
71457;BME280;59263;48.160;11.752;2022-08-04T05:14:36;95822.00;;;18.60;80.72
71457;BME280;59263;48.160;11.752;2022-08-04T05:17:14;95816.09;;;18.80;77.48
71457;BME280;59263;48.160;11.752;2022-08-04T05:22:36;95816.22;;;19.06;76.52
71457;BME280;59263;48.160;11.752;2022-08-04T05:25:06;95815.03;;;19.16;75.92
71457;BME280;59263;48.160;11.752;2022-08-04T05:27:37;95812.09;;;19.32;75.14
71457;BME280;59263;48.160;11.752;2022-08-04T05:30:05;95806.66;;;19.40;76.77
71457;BME280;59263;48.160;11.752;2022-08-04T05:32:44;95809.50;;;19.52;77.11
71457;BME280;59263;48.160;11.752;2022-08-04T05:35:14;95807.88;;;19.57;76.25
71457;BME280;59263;48.160;11.752;2022-08-04T05:37:42;95813.19;;;19.71;74.67
71457;BME280;59263;48.160;11.752;2022-08-04T05:40:10;95814.81;;;19.78;75.44
71457;BME280;59263;48.160;11.752;2022-08-04T05:42:39;95806.53;;;19.88;73.70
71457;BME280;59263;48.160;11.752;2022-08-04T05:45:06;95811.19;;;19.99;74.18
71457;BME280;59263;48.160;11.752;2022-08-04T05:47:33;95806.13;;;20.11;73.26
71457;BME280;59263;48.160;11.752;2022-08-04T05:50:00;95806.34;;;20.23;72.58
71457;BME280;59263;48.160;11.752;2022-08-04T05:52:27;95813.19;;;20.37;71.61
71457;BME280;59263;48.160;11.752;2022-08-04T05:54:53;95803.69;;;20.63;69.22
71457;BME280;59263;48.160;11.752;2022-08-04T05:57:20;95815.97;;;20.69;71.55
71457;BME280;59263;48.160;11.752;2022-08-04T05:59:45;95808.69;;;20.77;71.90
71457;BME280;59263;48.160;11.752;2022-08-04T06:02:13;95808.25;;;20.87;72.25
71457;BME280;59263;48.160;11.752;2022-08-04T06:04:44;95805.78;;;20.99;70.36
71457;BME280;59263;48.160;11.752;2022-08-04T06:07:12;95798.31;;;20.96;69.74
71457;BME280;59263;48.160;11.752;2022-08-04T06:09:39;95803.09;;;21.12;68.29
71457;BME280;59263;48.160;11.752;2022-08-04T06:12:08;95800.03;;;21.15;69.27
71457;BME280;59263;48.160;11.752;2022-08-04T06:14:39;95800.75;;;21.42;65.61
71457;BME280;59263;48.160;11.752;2022-08-04T06:17:07;95797.53;;;21.40;68.71
71457;BME280;59263;48.160;11.752;2022-08-04T06:19:34;95800.31;;;21.45;68.23
71457;BME280;59263;48.160;11.752;2022-08-04T06:22:03;95789.97;;;21.50;66.99
71457;BME280;59263;48.160;11.752;2022-08-04T06:24:30;95801.88;;;21.60;66.35
71457;BME280;59263;48.160;11.752;2022-08-04T06:26:57;95793.66;;;21.74;67.10
71457;BME280;59263;48.160;11.752;2022-08-04T06:29:25;95799.28;;;21.85;66.08
71457;BME280;59263;48.160;11.752;2022-08-04T06:31:57;95800.72;;;22.06;65.86
71457;BME280;59263;48.160;11.752;2022-08-04T06:34:27;95804.03;;;22.26;63.43
71457;BME280;59263;48.160;11.752;2022-08-04T06:36:54;95794.31;;;22.45;63.65
71457;BME280;59263;48.160;11.752;2022-08-04T06:39:21;95795.81;;;22.59;63.08
71457;BME280;59263;48.160;11.752;2022-08-04T06:41:49;95791.22;;;22.73;63.75
71457;BME280;59263;48.160;11.752;2022-08-04T06:44:15;95795.47;;;22.92;62.14
71457;BME280;59263;48.160;11.752;2022-08-04T06:46:42;95794.56;;;22.99;59.63
71457;BME280;59263;48.160;11.752;2022-08-04T06:49:08;95803.75;;;23.14;60.07
71457;BME280;59263;48.160;11.752;2022-08-04T06:51:36;95797.31;;;23.40;57.49
71457;BME280;59263;48.160;11.752;2022-08-04T06:54:03;95798.97;;;23.65;59.07
71457;BME280;59263;48.160;11.752;2022-08-04T06:56:29;95796.41;;;23.77;58.79
71457;BME280;59263;48.160;11.752;2022-08-04T06:58:56;95804.03;;;23.85;58.28
71457;BME280;59263;48.160;11.752;2022-08-04T07:01:24;95801.97;;;23.99;56.28
71457;BME280;59263;48.160;11.752;2022-08-04T07:03:51;95800.59;;;24.08;57.74
71457;BME280;59263;48.160;11.752;2022-08-04T07:06:17;95799.38;;;24.34;54.79
71457;BME280;59263;48.160;11.752;2022-08-04T07:08:43;95794.56;;;24.66;53.14
71457;BME280;59263;48.160;11.752;2022-08-04T07:11:08;95797.72;;;24.92;53.23
71457;BME280;59263;48.160;11.752;2022-08-04T07:13:36;95791.34;;;25.16;50.72
71457;BME280;59263;48.160;11.752;2022-08-04T07:16:01;95788.44;;;25.29;51.50
71457;BME280;59263;48.160;11.752;2022-08-04T07:18:30;95785.69;;;25.53;52.92
71457;BME280;59263;48.160;11.752;2022-08-04T07:20:56;95790.66;;;25.49;52.67
71457;BME280;59263;48.160;11.752;2022-08-04T07:23:25;95793.56;;;25.65;50.76
71457;BME280;59263;48.160;11.752;2022-08-04T07:25:52;95792.44;;;26.06;48.23
71457;BME280;59263;48.160;11.752;2022-08-04T07:28:20;95788.56;;;26.14;50.62
71457;BME280;59263;48.160;11.752;2022-08-04T07:30:47;95794.06;;;26.07;49.30
71457;BME280;59263;48.160;11.752;2022-08-04T07:33:14;95795.66;;;26.08;50.32
71457;BME280;59263;48.160;11.752;2022-08-04T07:35:40;95797.03;;;26.11;49.86
71457;BME280;59263;48.160;11.752;2022-08-04T07:38:05;95795.00;;;26.18;49.77
71457;BME280;59263;48.160;11.752;2022-08-04T07:40:31;95798.53;;;26.57;48.05
71457;BME280;59263;48.160;11.752;2022-08-04T07:42:58;95798.16;;;26.48;47.67
71457;BME280;59263;48.160;11.752;2022-08-04T07:45:24;95796.59;;;26.36;48.24
71457;BME280;59263;48.160;11.752;2022-08-04T07:47:50;95793.06;;;26.47;47.45
71457;BME280;59263;48.160;11.752;2022-08-04T07:50:15;95792.38;;;26.73;45.46
71457;BME280;59263;48.160;11.752;2022-08-04T07:52:42;95789.69;;;26.90;47.51
71457;BME280;59263;48.160;11.752;2022-08-04T07:55:09;95790.84;;;26.99;46.34
71457;BME280;59263;48.160;11.752;2022-08-04T07:57:35;95781.66;;;27.07;45.89
71457;BME280;59263;48.160;11.752;2022-08-04T08:00:02;95788.50;;;27.25;44.31
71457;BME280;59263;48.160;11.752;2022-08-04T08:02:28;95788.75;;;27.45;44.10
71457;BME280;59263;48.160;11.752;2022-08-04T08:04:53;95788.25;;;27.76;42.38
71457;BME280;59263;48.160;11.752;2022-08-04T08:07:19;95779.34;;;27.92;43.04
71457;BME280;59263;48.160;11.752;2022-08-04T08:09:44;95783.75;;;28.08;41.97
71457;BME280;59263;48.160;11.752;2022-08-04T08:12:10;95790.88;;;28.35;41.47
71457;BME280;59263;48.160;11.752;2022-08-04T08:14:36;95795.19;;;28.41;42.41
71457;BME280;59263;48.160;11.752;2022-08-04T08:17:03;95791.53;;;28.52;40.46
71457;BME280;59263;48.160;11.752;2022-08-04T08:19:32;95797.41;;;28.54;40.84
71457;BME280;59263;48.160;11.752;2022-08-04T08:22:02;95796.06;;;28.52;40.43
71457;BME280;59263;48.160;11.752;2022-08-04T08:24:29;95796.88;;;28.52;40.14
71457;BME280;59263;48.160;11.752;2022-08-04T08:26:54;95795.03;;;28.58;39.78
71457;BME280;59263;48.160;11.752;2022-08-04T08:29:21;95795.31;;;28.61;40.35
71457;BME280;59263;48.160;11.752;2022-08-04T08:31:47;95788.78;;;28.84;40.08
71457;BME280;59263;48.160;11.752;2022-08-04T08:34:13;95795.06;;;29.15;40.03
71457;BME280;59263;48.160;11.752;2022-08-04T08:36:47;95796.19;;;29.40;37.73
71457;BME280;59263;48.160;11.752;2022-08-04T08:39:24;95796.31;;;29.71;35.71
71457;BME280;59263;48.160;11.752;2022-08-04T08:44:55;95793.66;;;29.71;36.52
71457;BME280;59263;48.160;11.752;2022-08-04T08:50:21;95784.56;;;29.92;35.93
71457;BME280;59263;48.160;11.752;2022-08-04T08:53:01;95790.22;;;30.31;36.28
71457;BME280;59263;48.160;11.752;2022-08-04T09:01:39;95786.63;;;30.97;34.44
71457;BME280;59263;48.160;11.752;2022-08-04T09:09:12;95786.63;;;31.52;32.75
71457;BME280;59263;48.160;11.752;2022-08-04T09:11:49;95794.41;;;31.53;31.53
71457;BME280;59263;48.160;11.752;2022-08-04T09:14:22;95788.66;;;31.21;32.92
71457;BME280;59263;48.160;11.752;2022-08-04T09:16:51;95797.22;;;31.18;33.22
71457;BME280;59263;48.160;11.752;2022-08-04T09:22:14;95792.06;;;31.42;31.92
71457;BME280;59263;48.160;11.752;2022-08-04T09:24:59;95786.63;;;30.92;33.01
71457;BME280;59263;48.160;11.752;2022-08-04T09:27:45;95786.16;;;30.75;33.54
71457;BME280;59263;48.160;11.752;2022-08-04T09:30:17;95787.19;;;30.74;33.47
71457;BME280;59263;48.160;11.752;2022-08-04T09:33:14;95784.13;;;31.16;33.01
71457;BME280;59263;48.160;11.752;2022-08-04T09:35:48;95779.38;;;31.57;32.16
71457;BME280;59263;48.160;11.752;2022-08-04T09:41:26;95776.72;;;32.31;31.40
71457;BME280;59263;48.160;11.752;2022-08-04T09:47:46;95784.09;;;32.44;32.49
71457;BME280;59263;48.160;11.752;2022-08-04T09:55:40;95776.03;;;33.40;31.72
71457;BME280;59263;48.160;11.752;2022-08-04T09:58:16;95774.00;;;33.32;31.51
71457;BME280;59263;48.160;11.752;2022-08-04T10:01:00;95769.03;;;33.63;31.18
71457;BME280;59263;48.160;11.752;2022-08-04T10:03:32;95777.53;;;33.89;29.77
71457;BME280;59263;48.160;11.752;2022-08-04T10:06:09;95764.78;;;34.74;29.31
71457;BME280;59263;48.160;11.752;2022-08-04T10:08:55;95771.94;;;35.34;27.72
71457;BME280;59263;48.160;11.752;2022-08-04T10:11:46;95772.94;;;35.52;28.21
71457;BME280;59263;48.160;11.752;2022-08-04T10:14:50;95768.44;;;35.61;27.01
71457;BME280;59263;48.160;11.752;2022-08-04T10:17:32;95761.91;;;34.24;28.60
71457;BME280;59263;48.160;11.752;2022-08-04T10:23:14;95758.53;;;36.15;25.86
71457;BME280;59263;48.160;11.752;2022-08-04T10:26:10;95765.69;;;36.82;24.78
71457;BME280;59263;48.160;11.752;2022-08-04T10:28:44;95770.88;;;36.70;24.65
71457;BME280;59263;48.160;11.752;2022-08-04T10:31:16;95757.63;;;35.97;26.45
71457;BME280;59263;48.160;11.752;2022-08-04T10:33:53;95754.78;;;35.44;26.51
71457;BME280;59263;48.160;11.752;2022-08-04T10:36:23;95753.84;;;35.48;27.36
71457;BME280;59263;48.160;11.752;2022-08-04T10:39:09;95757.34;;;35.62;25.81
71457;BME280;59263;48.160;11.752;2022-08-04T10:41:46;95752.44;;;36.32;24.54
71457;BME280;59263;48.160;11.752;2022-08-04T10:47:17;95752.06;;;34.33;27.62
71457;BME280;59263;48.160;11.752;2022-08-04T10:49:47;95766.03;;;33.27;29.04
71457;BME280;59263;48.160;11.752;2022-08-04T10:55:06;95762.88;;;33.01;30.27
71457;BME280;59263;48.160;11.752;2022-08-04T10:57:45;95752.63;;;32.55;31.47
71457;BME280;59263;48.160;11.752;2022-08-04T11:00:14;95749.47;;;32.53;29.94
71457;BME280;59263;48.160;11.752;2022-08-04T11:02:51;95746.41;;;33.08;30.17
71457;BME280;59263;48.160;11.752;2022-08-04T11:05:46;95740.09;;;33.41;29.30
71457;BME280;59263;48.160;11.752;2022-08-04T11:10:51;95748.31;;;32.83;28.76
71457;BME280;59263;48.160;11.752;2022-08-04T11:13:21;95743.59;;;32.99;29.17
71457;BME280;59263;48.160;11.752;2022-08-04T11:15:52;95741.44;;;33.77;27.11
71457;BME280;59263;48.160;11.752;2022-08-04T11:21:26;95737.34;;;33.46;28.09
71457;BME280;59263;48.160;11.752;2022-08-04T11:24:02;95740.94;;;33.18;27.96
71457;BME280;59263;48.160;11.752;2022-08-04T11:29:23;95731.97;;;33.46;28.53
71457;BME280;59263;48.160;11.752;2022-08-04T11:31:50;95736.91;;;32.96;28.05
71457;BME280;59263;48.160;11.752;2022-08-04T11:34:20;95733.44;;;32.72;28.65
71457;BME280;59263;48.160;11.752;2022-08-04T11:36:58;95737.59;;;32.59;29.04
71457;BME280;59263;48.160;11.752;2022-08-04T11:42:37;95733.19;;;32.44;29.17
71457;BME280;59263;48.160;11.752;2022-08-04T11:50:12;95727.06;;;32.68;28.13
71457;BME280;59263;48.160;11.752;2022-08-04T11:52:43;95732.88;;;33.37;27.75
71457;BME280;59263;48.160;11.752;2022-08-04T11:55:12;95728.69;;;33.68;27.65
71457;BME280;59263;48.160;11.752;2022-08-04T11:57:39;95727.63;;;33.51;28.15
71457;BME280;59263;48.160;11.752;2022-08-04T12:00:07;95719.34;;;33.28;27.70
71457;BME280;59263;48.160;11.752;2022-08-04T12:03:09;95716.28;;;33.16;28.18
71457;BME280;59263;48.160;11.752;2022-08-04T12:05:53;95717.41;;;33.34;27.67
71457;BME280;59263;48.160;11.752;2022-08-04T12:08:50;95722.69;;;33.58;27.19
71457;BME280;59263;48.160;11.752;2022-08-04T12:11:39;95718.75;;;34.34;26.41
71457;BME280;59263;48.160;11.752;2022-08-04T12:14:40;95712.16;;;34.13;26.49
71457;BME280;59263;48.160;11.752;2022-08-04T12:17:10;95716.81;;;33.75;27.99
71457;BME280;59263;48.160;11.752;2022-08-04T12:20:02;95706.34;;;33.35;28.07
71457;BME280;59263;48.160;11.752;2022-08-04T12:22:24;95706.72;;;33.10;29.25
71457;BME280;59263;48.160;11.752;2022-08-04T12:24:57;95707.97;;;32.93;29.88
71457;BME280;59263;48.160;11.752;2022-08-04T12:27:27;95700.47;;;32.71;29.07
71457;BME280;59263;48.160;11.752;2022-08-04T12:29:54;95705.09;;;32.66;30.60
71457;BME280;59263;48.160;11.752;2022-08-04T12:35:00;95702.41;;;32.90;29.86
71457;BME280;59263;48.160;11.752;2022-08-04T12:37:50;95695.09;;;32.95;28.61
71457;BME280;59263;48.160;11.752;2022-08-04T12:40:30;95699.66;;;32.95;28.58
71457;BME280;59263;48.160;11.752;2022-08-04T12:43:19;95689.34;;;32.83;29.55
71457;BME280;59263;48.160;11.752;2022-08-04T12:45:52;95692.59;;;32.80;29.56
71457;BME280;59263;48.160;11.752;2022-08-04T12:48:20;95697.38;;;32.83;29.99
71457;BME280;59263;48.160;11.752;2022-08-04T12:50:48;95696.94;;;32.76;30.33
71457;BME280;59263;48.160;11.752;2022-08-04T12:53:15;95699.69;;;32.71;31.08
71457;BME280;59263;48.160;11.752;2022-08-04T12:55:47;95685.09;;;32.58;30.67
71457;BME280;59263;48.160;11.752;2022-08-04T12:58:19;95687.69;;;32.39;30.36
71457;BME280;59263;48.160;11.752;2022-08-04T13:00:52;95681.22;;;32.16;29.80
71457;BME280;59263;48.160;11.752;2022-08-04T13:03:20;95686.41;;;32.08;30.92
71457;BME280;59263;48.160;11.752;2022-08-04T13:05:52;95680.72;;;32.14;30.59
71457;BME280;59263;48.160;11.752;2022-08-04T13:08:19;95688.50;;;32.11;31.43
71457;BME280;59263;48.160;11.752;2022-08-04T13:10:47;95680.06;;;32.51;30.98
71457;BME280;59263;48.160;11.752;2022-08-04T13:13:18;95682.78;;;32.94;30.17
71457;BME280;59263;48.160;11.752;2022-08-04T13:15:55;95676.94;;;32.87;28.81
71457;BME280;59263;48.160;11.752;2022-08-04T13:18:22;95680.06;;;32.75;30.30
71457;BME280;59263;48.160;11.752;2022-08-04T13:20:47;95673.22;;;32.64;30.92
71457;BME280;59263;48.160;11.752;2022-08-04T13:23:14;95671.59;;;32.39;29.98
71457;BME280;59263;48.160;11.752;2022-08-04T13:25:45;95664.78;;;32.28;30.14
71457;BME280;59263;48.160;11.752;2022-08-04T13:28:30;95672.66;;;32.14;30.13
71457;BME280;59263;48.160;11.752;2022-08-04T13:30:59;95667.22;;;32.24;29.52
71457;BME280;59263;48.160;11.752;2022-08-04T13:33:31;95666.59;;;32.09;29.71
71457;BME280;59263;48.160;11.752;2022-08-04T13:35:58;95665.31;;;32.01;30.48
71457;BME280;59263;48.160;11.752;2022-08-04T13:38:25;95660.78;;;31.96;30.97
71457;BME280;59263;48.160;11.752;2022-08-04T13:40:51;95663.16;;;32.03;31.72
71457;BME280;59263;48.160;11.752;2022-08-04T13:43:26;95660.84;;;31.91;31.00
71457;BME280;59263;48.160;11.752;2022-08-04T13:46:03;95663.03;;;31.89;31.10
71457;BME280;59263;48.160;11.752;2022-08-04T13:48:39;95659.31;;;31.80;31.56
71457;BME280;59263;48.160;11.752;2022-08-04T13:51:08;95655.19;;;31.98;29.90
71457;BME280;59263;48.160;11.752;2022-08-04T13:53:36;95657.94;;;31.88;31.86
71457;BME280;59263;48.160;11.752;2022-08-04T13:56:05;95662.75;;;31.91;30.84
71457;BME280;59263;48.160;11.752;2022-08-04T13:58:33;95653.97;;;31.80;30.45
71457;BME280;59263;48.160;11.752;2022-08-04T14:01:04;95654.53;;;31.77;30.79
71457;BME280;59263;48.160;11.752;2022-08-04T14:03:40;95650.09;;;31.96;30.54
71457;BME280;59263;48.160;11.752;2022-08-04T14:08:52;95639.25;;;32.12;29.90
71457;BME280;59263;48.160;11.752;2022-08-04T14:11:21;95647.31;;;32.07;29.97
71457;BME280;59263;48.160;11.752;2022-08-04T14:13:47;95640.47;;;31.95;28.55
71457;BME280;59263;48.160;11.752;2022-08-04T14:16:18;95633.06;;;31.87;30.17
71457;BME280;59263;48.160;11.752;2022-08-04T14:18:44;95632.28;;;32.11;30.44
71457;BME280;59263;48.160;11.752;2022-08-04T14:21:13;95632.09;;;32.02;29.78
71457;BME280;59263;48.160;11.752;2022-08-04T14:23:46;95631.34;;;31.96;30.35
71457;BME280;59263;48.160;11.752;2022-08-04T14:26:14;95636.28;;;31.89;30.11
71457;BME280;59263;48.160;11.752;2022-08-04T14:28:39;95637.84;;;31.85;30.71
71457;BME280;59263;48.160;11.752;2022-08-04T14:31:16;95626.13;;;31.86;31.23
71457;BME280;59263;48.160;11.752;2022-08-04T14:33:43;95630.09;;;31.89;30.49
71457;BME280;59263;48.160;11.752;2022-08-04T14:36:10;95625.44;;;31.99;30.66
71457;BME280;59263;48.160;11.752;2022-08-04T14:38:53;95631.16;;;32.17;30.43
71457;BME280;59263;48.160;11.752;2022-08-04T14:41:31;95625.69;;;32.27;29.78
71457;BME280;59263;48.160;11.752;2022-08-04T14:44:06;95626.47;;;32.27;30.50
71457;BME280;59263;48.160;11.752;2022-08-04T14:46:32;95622.88;;;32.13;29.65
71457;BME280;59263;48.160;11.752;2022-08-04T14:51:45;95624.66;;;32.23;28.54
71457;BME280;59263;48.160;11.752;2022-08-04T14:54:14;95623.69;;;32.14;30.44
71457;BME280;59263;48.160;11.752;2022-08-04T14:56:40;95624.06;;;32.02;30.16
71457;BME280;59263;48.160;11.752;2022-08-04T14:59:08;95627.28;;;32.04;30.92
71457;BME280;59263;48.160;11.752;2022-08-04T15:01:36;95620.63;;;31.96;29.80
71457;BME280;59263;48.160;11.752;2022-08-04T15:04:03;95625.56;;;31.89;29.18
71457;BME280;59263;48.160;11.752;2022-08-04T15:06:31;95622.34;;;31.87;28.95
71457;BME280;59263;48.160;11.752;2022-08-04T15:09:03;95620.94;;;31.95;29.79
71457;BME280;59263;48.160;11.752;2022-08-04T15:11:29;95623.44;;;31.86;28.86
71457;BME280;59263;48.160;11.752;2022-08-04T15:13:55;95619.19;;;31.80;30.02
71457;BME280;59263;48.160;11.752;2022-08-04T15:16:23;95612.19;;;31.89;29.07
71457;BME280;59263;48.160;11.752;2022-08-04T15:18:49;95616.91;;;31.97;30.53
71457;BME280;59263;48.160;11.752;2022-08-04T15:21:15;95620.50;;;32.12;28.95
71457;BME280;59263;48.160;11.752;2022-08-04T15:23:41;95610.50;;;32.17;28.99
71457;BME280;59263;48.160;11.752;2022-08-04T15:26:11;95611.31;;;32.18;28.96
71457;BME280;59263;48.160;11.752;2022-08-04T15:28:39;95614.06;;;32.13;28.47
71457;BME280;59263;48.160;11.752;2022-08-04T15:31:07;95612.97;;;32.14;28.62
71457;BME280;59263;48.160;11.752;2022-08-04T15:33:34;95605.88;;;32.04;30.03
71457;BME280;59263;48.160;11.752;2022-08-04T15:36:11;95605.97;;;31.94;28.41
71457;BME280;59263;48.160;11.752;2022-08-04T15:39:32;95604.16;;;31.89;28.60
71457;BME280;59263;48.160;11.752;2022-08-04T15:41:33;95599.03;;;31.93;27.96
71457;BME280;59263;48.160;11.752;2022-08-04T15:49:18;95588.63;;;32.10;28.71
71457;BME280;59263;48.160;11.752;2022-08-04T15:51:44;95588.41;;;32.07;28.65
71457;BME280;59263;48.160;11.752;2022-08-04T15:56:46;95585.47;;;32.08;29.91
71457;BME280;59263;48.160;11.752;2022-08-04T15:59:12;95576.69;;;32.02;29.86
71457;BME280;59263;48.160;11.752;2022-08-04T16:01:37;95577.25;;;31.99;30.51
71457;BME280;59263;48.160;11.752;2022-08-04T16:04:23;95576.78;;;31.92;29.31
71457;BME280;59263;48.160;11.752;2022-08-04T16:06:48;95567.63;;;31.98;29.60
71457;BME280;59263;48.160;11.752;2022-08-04T16:09:22;95567.50;;;32.09;29.60
71457;BME280;59263;48.160;11.752;2022-08-04T16:11:48;95570.28;;;32.22;28.29
71457;BME280;59263;48.160;11.752;2022-08-04T16:14:14;95573.88;;;32.13;29.90
71457;BME280;59263;48.160;11.752;2022-08-04T16:21:57;95572.13;;;32.03;30.31
71457;BME280;59263;48.160;11.752;2022-08-04T16:27:01;95558.63;;;31.89;29.33
71457;BME280;59263;48.160;11.752;2022-08-04T16:29:32;95563.53;;;31.77;29.46
71457;BME280;59263;48.160;11.752;2022-08-04T16:34:31;95559.91;;;31.68;30.04
71457;BME280;59263;48.160;11.752;2022-08-04T16:37:07;95568.50;;;31.65;31.05
71457;BME280;59263;48.160;11.752;2022-08-04T16:39:33;95569.81;;;31.67;30.14
71457;BME280;59263;48.160;11.752;2022-08-04T16:41:59;95563.53;;;31.77;29.32
71457;BME280;59263;48.160;11.752;2022-08-04T16:44:32;95566.31;;;31.67;29.48
71457;BME280;59263;48.160;11.752;2022-08-04T16:47:01;95560.00;;;31.57;29.17
71457;BME280;59263;48.160;11.752;2022-08-04T16:49:28;95563.28;;;31.49;29.62
71457;BME280;59263;48.160;11.752;2022-08-04T16:51:54;95565.44;;;31.47;29.90
71457;BME280;59263;48.160;11.752;2022-08-04T16:54:25;95557.97;;;31.44;31.28
71457;BME280;59263;48.160;11.752;2022-08-04T16:56:53;95564.38;;;31.48;29.46
71457;BME280;59263;48.160;11.752;2022-08-04T16:59:19;95561.47;;;31.45;30.28
71457;BME280;59263;48.160;11.752;2022-08-04T17:01:50;95561.16;;;31.46;30.11
71457;BME280;59263;48.160;11.752;2022-08-04T17:04:16;95549.94;;;31.44;29.29
71457;BME280;59263;48.160;11.752;2022-08-04T17:06:43;95546.22;;;31.45;29.92